Fuji Maru — JD2030 — position and weather

sailwx.info

Track history (hours):
 
Tides and Currents Weather Stations Pressure Air Temp Water Temp Dewpoint Dewpoint Depression Visibility Wind Speed Wind Dir Waves Ship Positions

Fuji Maru

Last reported at 2014-Oct-21 10:04 UTC. Time now 2014-Oct-21 13:32 UTC.
Position N 35°36' E 139°47'.

Length 38 m; draft 4.4 m.

Type: Tug. MMSI: 431001102.

Date/timePositionNaut miles runAvg speedWind from/ knotsBaromVisibWave heightAir tempDewpointWater temp
2014-Oct-21 10:04N 35°36' E 139°47'2 3.2
2014-Oct-21 09:31N 35°35' E 139°48'0 0.4
2014-Oct-21 08:33N 35°35' E 139°48'3 2.6
2014-Oct-21 07:31N 35°37' E 139°46'4 0.4
2014-Oct-20 21:33N 35°34' E 139°49'3 2.7
2014-Oct-20 20:32N 35°36' E 139°46'  
2014-Oct-18 08:08N 35°36' E 139°47'3 5.2
2014-Oct-18 07:33N 35°34' E 139°49'3 2.3
2014-Oct-18 06:25N 35°35' E 139°47'1 1.3
2014-Oct-18 05:33N 35°37' E 139°47'2 0.4
2014-Oct-18 00:24N 35°38' E 139°46'3 1.4
2014-Oct-17 22:24N 35°36' E 139°47'2 2.8
2014-Oct-17 21:33N 35°34' E 139°49'3 3.2
2014-Oct-17 20:33N 35°37' E 139°47'2 0.1
2014-Oct-17 02:27N 35°38' E 139°46'5 5.5
2014-Oct-17 01:33N 35°34' E 139°49'2 2.3
2014-Oct-17 00:30N 35°36' E 139°47'0 0.0
2014-Oct-16 23:30N 35°36' E 139°47'0 0.3
2014-Oct-16 22:21N 35°36' E 139°47'1 0.9
2014-Oct-16 21:33N 35°36' E 139°46'0 0.0
2014-Oct-16 08:17N 35°36' E 139°46'  
2014-Oct-12 17:29N 35°38' E 139°46'2 2.0
2014-Oct-12 16:30N 35°36' E 139°46'1 1.1
2014-Oct-12 15:28N 35°38' E 139°46'1 0.8
2014-Oct-12 14:33N 35°37' E 139°46'0 0.1
2014-Oct-12 10:16N 35°37' E 139°46'2 3.1
2014-Oct-12 09:33N 35°35' E 139°47'0 0.1
2014-Oct-12 07:33N 35°35' E 139°48'2 2.4
2014-Oct-12 06:33N 35°34' E 139°50'3 0.4
2014-Oct-11 22:33N 35°36' E 139°47'2 1.8
2014-Oct-11 21:28N 35°34' E 139°48'2 2.7
2014-Oct-11 20:33N 35°36' E 139°46'  
Track history (hours):
 
Tides and Currents Weather Stations Pressure Air Temp Water Temp Dewpoint Dewpoint Depression Visibility Wind Speed Wind Dir Waves Ship Positions

Fuji Maru

Last reported at 2014-Oct-21 10:04 UTC. Time now 2014-Oct-21 13:32 UTC.
Position N 35°36' E 139°47'.

Length 38 m; draft 4.4 m.

Type: Tug. MMSI: 431001102.

Date/timePositionNaut miles runAvg speedWind from/ knotsBaromVisibWave heightAir tempDewpointWater temp
2014-Oct-21 10:04N 35°36' E 139°47'2 3.2
2014-Oct-21 09:31N 35°35' E 139°48'0 0.4
2014-Oct-21 08:33N 35°35' E 139°48'3 2.6
2014-Oct-21 07:31N 35°37' E 139°46'4 0.4
2014-Oct-20 21:33N 35°34' E 139°49'3 2.7
2014-Oct-20 20:32N 35°36' E 139°46'  
2014-Oct-18 08:08N 35°36' E 139°47'3 5.2
2014-Oct-18 07:33N 35°34' E 139°49'3 2.3
2014-Oct-18 06:25N 35°35' E 139°47'1 1.3
2014-Oct-18 05:33N 35°37' E 139°47'2 0.4
2014-Oct-18 00:24N 35°38' E 139°46'3 1.4
2014-Oct-17 22:24N 35°36' E 139°47'2 2.8
2014-Oct-17 21:33N 35°34' E 139°49'3 3.2
2014-Oct-17 20:33N 35°37' E 139°47'2 0.1
2014-Oct-17 02:27N 35°38' E 139°46'5 5.5
2014-Oct-17 01:33N 35°34' E 139°49'2 2.3
2014-Oct-17 00:30N 35°36' E 139°47'0 0.0
2014-Oct-16 23:30N 35°36' E 139°47'0 0.3
2014-Oct-16 22:21N 35°36' E 139°47'1 0.9
2014-Oct-16 21:33N 35°36' E 139°46'0 0.0
2014-Oct-16 08:17N 35°36' E 139°46'  
2014-Oct-12 17:29N 35°38' E 139°46'2 2.0
2014-Oct-12 16:30N 35°36' E 139°46'1 1.1
2014-Oct-12 15:28N 35°38' E 139°46'1 0.8
2014-Oct-12 14:33N 35°37' E 139°46'0 0.1
2014-Oct-12 10:16N 35°37' E 139°46'2 3.1
2014-Oct-12 09:33N 35°35' E 139°47'0 0.1
2014-Oct-12 07:33N 35°35' E 139°48'2 2.4
2014-Oct-12 06:33N 35°34' E 139°50'3 0.4
2014-Oct-11 22:33N 35°36' E 139°47'2 1.8
2014-Oct-11 21:28N 35°34' E 139°48'2 2.7
2014-Oct-11 20:33N 35°36' E 139°46'  

Dump ship's entire track history